Time;durP1;ratioP1;P1;durP2;ratioP2;P2;SDS_P1;SDS_P2;PMS_P1;PMS_P2;Temp;Humidity;BMP_temperature;BMP_pressure;BME280_temperature;BME280_humidity;BME280_pressure;Samples;Min_cycle;Max_cycle;Signal;HPM_P1;HPM_P2
2020/12/18 00:00:53;;;;;;;40.72;17.25;;;;;;;4.34;76.24;94839.41;5012028;28;20109;-64
2020/12/18 00:03:19;;;;;;;36.83;16.75;;;;;;;4.36;76.10;94843.41;5010036;28;20034;-64
2020/12/18 00:05:44;;;;;;;38.22;17.02;;;;;;;4.44;75.81;94834.22;5011276;28;20026;-64
2020/12/18 00:08:10;;;;;;;37.47;16.25;;;;;;;4.54;75.18;94841.44;5009830;28;20048;-64
2020/12/18 00:10:38;;;;;;;36.42;16.27;;;;;;;4.58;74.46;94845.97;5009576;28;20022;-65
2020/12/18 00:13:03;;;;;;;38.90;15.70;;;;;;;4.56;74.65;94848.06;5011200;28;20026;-65
2020/12/18 00:15:29;;;;;;;37.70;16.55;;;;;;;4.52;74.68;94846.97;5010985;28;20504;-64
2020/12/18 00:17:55;;;;;;;39.97;17.15;;;;;;;4.53;75.03;94840.63;5011334;28;20473;-64
2020/12/18 00:20:20;;;;;;;37.67;16.95;;;;;;;4.58;74.71;94840.69;5011136;28;20501;-65
2020/12/18 00:22:47;;;;;;;33.28;15.50;;;;;;;4.63;74.10;94837.28;5009738;28;20574;-64
2020/12/18 00:25:13;;;;;;;34.15;15.77;;;;;;;4.61;73.90;94847.31;5010924;28;20174;-65
2020/12/18 00:27:42;;;;;;;37.75;17.83;;;;;;;4.59;74.36;94830.91;5010874;28;20026;-65
2020/12/18 00:30:09;;;;;;;45.72;17.02;;;;;;;4.60;74.13;94833.31;5010606;28;20025;-64
2020/12/18 00:32:39;;;;;;;38.63;18.27;;;;;;;4.56;74.17;94826.94;5010336;28;20488;-64
2020/12/18 00:35:06;;;;;;;42.67;18.30;;;;;;;4.57;74.24;94831.16;5010961;28;20104;-64
2020/12/18 00:37:32;;;;;;;36.85;17.63;;;;;;;4.55;74.26;94829.81;5010486;28;20041;-63
2020/12/18 00:39:57;;;;;;;38.05;18.00;;;;;;;4.49;74.50;94834.25;5011113;28;20405;-63
2020/12/18 00:42:23;;;;;;;37.78;17.00;;;;;;;4.49;74.41;94844.81;5010330;28;20045;-63
2020/12/18 00:44:48;;;;;;;38.38;16.85;;;;;;;4.51;74.48;94839.31;5010537;28;20033;-64
2020/12/18 00:47:13;;;;;;;42.47;19.38;;;;;;;4.53;74.62;94842.47;5010458;28;20460;-64
2020/12/18 00:49:40;;;;;;;38.47;17.80;;;;;;;4.54;74.57;94842.25;5010356;28;20088;-64
2020/12/18 00:52:06;;;;;;;42.95;17.65;;;;;;;4.58;74.35;94834.59;5010891;28;20516;-64
2020/12/18 00:54:31;;;;;;;42.25;16.85;;;;;;;4.60;74.14;94843.88;5010615;28;20057;-64
2020/12/18 00:56:57;;;;;;;47.42;17.38;;;;;;;4.60;74.18;94837.81;5010267;28;20096;-64
2020/12/18 00:59:22;;;;;;;43.75;18.02;;;;;;;4.55;74.38;94841.19;5010747;28;20034;-63
2020/12/18 01:01:48;;;;;;;45.10;18.38;;;;;;;4.53;74.75;94853.03;5008802;28;20406;-64
2020/12/18 01:04:13;;;;;;;52.10;20.88;;;;;;;4.55;74.73;94843.81;5010404;28;20032;-64
2020/12/18 01:06:39;;;;;;;36.20;17.35;;;;;;;4.62;74.53;94841.78;5009557;28;20022;-64
2020/12/18 01:09:04;;;;;;;42.80;17.80;;;;;;;4.65;74.23;94843.13;5008586;28;20106;-63
2020/12/18 01:11:30;;;;;;;40.75;18.27;;;;;;;4.66;73.77;94841.28;5010352;28;20080;-63
2020/12/18 01:13:55;;;;;;;42.03;18.52;;;;;;;4.66;73.78;94836.00;5010090;28;20072;-64
2020/12/18 01:16:20;;;;;;;46.30;20.60;;;;;;;4.70;73.46;94842.34;5009998;28;20489;-63
2020/12/18 01:18:46;;;;;;;44.03;17.73;;;;;;;4.65;73.82;94839.69;5010367;28;20083;-64
2020/12/18 01:21:11;;;;;;;47.28;19.17;;;;;;;4.60;73.98;94838.59;5009845;28;20084;-64
2020/12/18 01:23:37;;;;;;;42.90;19.67;;;;;;;4.58;73.96;94847.78;5010134;28;20090;-64
2020/12/18 01:26:02;;;;;;;50.58;17.90;;;;;;;4.57;74.48;94839.09;5009848;28;20105;-65
2020/12/18 01:28:28;;;;;;;39.30;17.85;;;;;;;4.54;74.44;94847.53;5009999;28;20540;-64
2020/12/18 01:30:53;;;;;;;48.85;18.17;;;;;;;4.52;73.99;94843.53;5009890;28;20056;-63
2020/12/18 01:33:18;;;;;;;44.20;18.65;;;;;;;4.52;74.03;94846.97;5009708;28;20077;-64
2020/12/18 01:35:44;;;;;;;41.88;18.50;;;;;;;4.49;74.28;94836.13;5009864;28;20029;-64
2020/12/18 01:38:09;;;;;;;43.42;17.85;;;;;;;4.48;74.16;94824.75;5008318;28;20478;-64
2020/12/18 01:40:35;;;;;;;46.30;17.90;;;;;;;4.43;74.19;94830.78;5009756;28;20346;-64
2020/12/18 01:43:02;;;;;;;39.67;18.50;;;;;;;4.39;74.38;94832.31;5009647;28;20085;-64
2020/12/18 01:45:27;;;;;;;45.05;18.10;;;;;;;4.35;74.38;94836.50;5007954;28;20038;-64
2020/12/18 01:47:53;;;;;;;40.88;17.42;;;;;;;4.29;74.36;94826.94;5009694;28;20029;-64
2020/12/18 01:50:19;;;;;;;41.90;18.65;;;;;;;4.26;74.58;94832.75;5008155;28;20032;-64
2020/12/18 01:52:45;;;;;;;40.30;18.15;;;;;;;4.27;74.47;94828.25;5009630;28;20053;-63
2020/12/18 01:55:11;;;;;;;38.83;18.20;;;;;;;4.28;74.26;94833.28;5009669;28;20088;-63
2020/12/18 01:57:37;;;;;;;41.45;17.48;;;;;;;4.17;74.75;94835.03;5009460;28;20030;-63
2020/12/18 02:00:08;;;;;;;40.15;17.23;;;;;;;4.09;75.35;94839.94;5009565;28;20025;-63
2020/12/18 02:02:34;;;;;;;40.85;18.33;;;;;;;4.09;75.31;94838.13;5009402;28;20478;-65
2020/12/18 02:04:59;;;;;;;43.30;18.33;;;;;;;4.09;75.51;94832.84;5008252;28;20815;-65
2020/12/18 02:07:28;;;;;;;41.38;18.67;;;;;;;4.10;75.54;94831.00;5008283;28;20045;-65
2020/12/18 02:09:55;;;;;;;45.97;18.80;;;;;;;4.13;75.44;94828.66;5009276;28;20103;-65
2020/12/18 02:12:21;;;;;;;48.67;18.60;;;;;;;4.19;74.65;94824.22;5009649;28;20087;-64
2020/12/18 02:14:48;;;;;;;48.67;19.55;;;;;;;4.18;74.72;94825.28;5009412;28;20029;-65
2020/12/18 02:17:15;;;;;;;47.88;19.92;;;;;;;4.11;75.32;94825.47;5009758;28;20120;-63
2020/12/18 02:19:43;;;;;;;52.53;20.20;;;;;;;4.17;75.00;94813.09;5012691;28;20033;-64
2020/12/18 02:22:17;;;;;;;49.53;19.70;;;;;;;4.13;75.09;94814.66;5013564;28;20030;-63
2020/12/18 02:24:50;;;;;;;47.08;18.90;;;;;;;4.08;75.31;94820.69;5013587;28;20485;-64
2020/12/18 02:27:17;;;;;;;48.92;19.15;;;;;;;4.07;75.19;94824.38;5012079;28;20092;-63
2020/12/18 02:29:43;;;;;;;49.97;20.65;;;;;;;4.05;75.10;94820.38;5013131;28;20040;-63
2020/12/18 02:32:08;;;;;;;49.80;19.83;;;;;;;4.05;75.24;94831.75;5013155;28;20042;-63
2020/12/18 02:34:34;;;;;;;51.17;19.23;;;;;;;4.13;75.09;94828.66;5013229;28;20057;-63
2020/12/18 02:37:00;;;;;;;47.00;18.92;;;;;;;4.09;75.19;94819.66;5010626;28;20033;-63
2020/12/18 02:39:26;;;;;;;51.85;20.85;;;;;;;4.04;75.69;94830.13;5013083;28;20420;-63
2020/12/18 02:41:51;;;;;;;56.90;21.45;;;;;;;4.05;75.48;94821.19;5011354;28;20065;-63
2020/12/18 02:44:17;;;;;;;56.63;20.55;;;;;;;4.00;75.55;94824.56;5011525;28;20022;-63
2020/12/18 02:46:42;;;;;;;54.55;20.50;;;;;;;3.94;75.71;94830.81;5012925;28;20026;-63
2020/12/18 02:49:08;;;;;;;49.25;18.30;;;;;;;3.89;75.83;94827.31;5012748;28;20025;-63
2020/12/18 02:51:34;;;;;;;52.60;19.75;;;;;;;3.85;76.13;94826.22;5012793;28;20026;-63
2020/12/18 02:53:59;;;;;;;56.20;20.20;;;;;;;3.86;76.48;94839.16;5011634;28;20478;-63
2020/12/18 02:56:26;;;;;;;45.72;18.95;;;;;;;3.88;75.88;94825.75;5012247;28;20176;-64
2020/12/18 02:58:51;;;;;;;49.72;18.75;;;;;;;3.85;76.17;94832.31;5012694;28;20026;-63
2020/12/18 03:01:18;;;;;;;49.50;18.85;;;;;;;3.94;76.11;94827.38;5012719;28;20037;-63
2020/12/18 03:03:43;;;;;;;44.80;18.27;;;;;;;3.99;75.78;94833.53;5009990;28;20469;-64
2020/12/18 03:06:08;;;;;;;46.45;18.85;;;;;;;4.05;75.71;94826.47;5011214;28;20048;-64
2020/12/18 03:08:34;;;;;;;45.88;17.95;;;;;;;4.11;75.23;94827.28;5010997;28;20573;-63
2020/12/18 03:10:59;;;;;;;48.53;19.00;;;;;;;4.15;74.99;94829.22;5012249;28;20489;-64
2020/12/18 03:13:25;;;;;;;44.78;17.40;;;;;;;4.14;74.58;94827.59;5011043;28;20050;-64
2020/12/18 03:15:50;;;;;;;52.58;19.85;;;;;;;4.11;74.91;94817.56;5012054;28;20038;-63
2020/12/18 03:18:15;;;;;;;46.42;17.73;;;;;;;4.14;74.70;94821.53;5011105;28;20022;-64
2020/12/18 03:20:41;;;;;;;37.92;17.00;;;;;;;4.14;74.99;94819.69;5011042;28;20505;-64
2020/12/18 03:23:06;;;;;;;44.58;18.25;;;;;;;4.21;75.07;94822.13;5010575;28;20507;-63
2020/12/18 03:25:32;;;;;;;45.72;17.27;;;;;;;4.26;74.20;94824.81;5012238;28;20022;-64
2020/12/18 03:27:57;;;;;;;39.92;16.95;;;;;;;4.28;73.90;94824.59;5011980;28;20088;-63
2020/12/18 03:30:25;;;;;;;49.30;18.92;;;;;;;4.30;73.74;94833.03;5011144;28;20072;-63
2020/12/18 03:32:52;;;;;;;45.05;18.77;;;;;;;4.30;73.94;94833.84;5012075;28;20381;-63
2020/12/18 03:35:17;;;;;;;45.10;17.95;;;;;;;4.33;73.52;94832.53;5011820;28;20093;-64
2020/12/18 03:37:43;;;;;;;45.10;16.48;;;;;;;4.20;73.38;94831.88;5012243;28;20053;-63
2020/12/18 03:40:09;;;;;;;41.53;15.85;;;;;;;4.16;73.96;94828.16;5010223;28;20033;-64
2020/12/18 03:42:34;;;;;;;40.88;16.63;;;;;;;4.18;74.09;94833.19;5010496;28;20136;-64
2020/12/18 03:45:00;;;;;;;41.38;15.93;;;;;;;4.20;74.20;94834.53;5011694;28;20564;-64
2020/12/18 03:47:25;;;;;;;46.13;18.58;;;;;;;4.27;73.78;94833.53;5011582;28;20494;-63
2020/12/18 03:49:50;;;;;;;48.35;17.08;;;;;;;4.26;73.47;94827.47;5011697;28;20117;-64
2020/12/18 03:52:16;;;;;;;40.95;17.17;;;;;;;4.24;73.11;94841.97;5011540;28;20097;-63
2020/12/18 03:54:41;;;;;;;47.83;18.98;;;;;;;4.24;72.56;94844.59;5011701;28;20025;-64
2020/12/18 03:57:08;;;;;;;46.92;18.55;;;;;;;4.13;73.26;94844.50;5011550;28;20439;-64
2020/12/18 03:59:33;;;;;;;49.28;18.98;;;;;;;4.01;73.05;94842.00;5011590;28;20029;-64
2020/12/18 04:01:59;;;;;;;50.65;16.90;;;;;;;3.81;73.98;94837.28;5011677;28;20162;-64
2020/12/18 04:04:24;;;;;;;47.00;17.85;;;;;;;3.67;74.68;94838.69;5010219;28;20033;-64
2020/12/18 04:06:50;;;;;;;45.20;17.42;;;;;;;3.58;74.73;94850.69;5012004;28;20061;-64
2020/12/18 04:09:15;;;;;;;52.40;16.38;;;;;;;3.49;75.02;94841.63;5011207;28;20035;-63
2020/12/18 04:11:41;;;;;;;54.20;16.63;;;;;;;3.36;75.46;94835.66;5008640;28;20473;-64
2020/12/18 04:14:08;;;;;;;46.92;16.45;;;;;;;3.32;75.42;94844.31;5011527;28;20030;-64
2020/12/18 04:16:34;;;;;;;46.30;16.83;;;;;;;3.23;75.75;94841.28;5009895;28;20034;-64
2020/12/18 04:19:00;;;;;;;45.90;16.95;;;;;;;3.21;76.15;94846.00;5011482;28;20037;-63
2020/12/18 04:21:25;;;;;;;43.53;17.88;;;;;;;3.24;76.10;94852.59;5011254;28;20137;-63
2020/12/18 04:23:51;;;;;;;66.22;17.10;;;;;;;3.20;75.90;94852.31;5008392;28;20417;-63
2020/12/18 04:26:16;;;;;;;46.70;15.35;;;;;;;3.18;76.06;94854.38;5009855;28;20111;-64
2020/12/18 04:28:41;;;;;;;45.20;16.60;;;;;;;3.21;76.13;94861.78;5010830;28;20037;-64
2020/12/18 04:31:07;;;;;;;42.58;16.15;;;;;;;3.17;76.06;94858.06;5011076;28;20090;-64
2020/12/18 04:33:32;;;;;;;47.08;15.77;;;;;;;3.21;75.92;94856.53;5011005;28;20408;-64
2020/12/18 04:35:58;;;;;;;47.45;17.20;;;;;;;3.24;76.19;94855.25;5010600;28;20501;-64
2020/12/18 04:38:23;;;;;;;41.30;15.18;;;;;;;3.25;76.30;94865.53;5011567;28;20034;-63
2020/12/18 04:40:50;;;;;;;46.70;14.95;;;;;;;3.36;75.74;94864.66;5010497;28;20038;-64
2020/12/18 04:43:15;;;;;;;46.13;16.38;;;;;;;3.39;75.20;94858.09;5010524;28;20049;-63
2020/12/18 04:45:42;;;;;;;43.25;16.63;;;;;;;3.45;75.33;94869.50;5010560;28;20030;-64
2020/12/18 04:48:08;;;;;;;55.10;17.85;;;;;;;3.47;75.27;94857.69;5010511;28;20029;-63
2020/12/18 04:50:34;;;;;;;52.17;18.42;;;;;;;3.51;75.07;94861.41;5010612;28;20109;-63
2020/12/18 04:53:01;;;;;;;49.03;16.10;;;;;;;3.58;74.87;94863.88;5010417;28;20037;-64
2020/12/18 04:55:28;;;;;;;45.45;14.23;;;;;;;3.57;74.61;94862.28;5009435;28;20136;-63
2020/12/18 04:57:54;;;;;;;44.30;14.73;;;;;;;3.58;74.83;94863.88;5010308;28;20810;-63
2020/12/18 05:00:21;;;;;;;51.80;13.60;;;;;;;3.58;74.67;94863.88;5009151;28;20041;-64
2020/12/18 05:02:47;;;;;;;45.28;16.35;;;;;;;3.50;75.04;94870.38;5010414;28;20030;-63
2020/12/18 05:05:12;;;;;;;47.83;14.68;;;;;;;3.52;74.22;94870.13;5010180;28;20030;-64
2020/12/18 05:07:38;;;;;;;50.22;16.00;;;;;;;3.41;74.49;94866.56;5010052;28;20168;-63
2020/12/18 05:10:07;;;;;;;54.22;17.25;;;;;;;3.34;75.02;94876.50;5010125;28;20171;-63
2020/12/18 05:12:34;;;;;;;50.58;16.73;;;;;;;3.29;75.26;94866.66;5010261;28;20156;-63
2020/12/18 05:15:00;;;;;;;84.70;18.05;;;;;;;3.31;75.09;94869.84;5008798;28;20113;-63
2020/12/18 05:17:27;;;;;;;51.67;16.35;;;;;;;3.26;75.57;94867.16;5008645;28;20168;-63
2020/12/18 05:19:52;;;;;;;52.67;16.35;;;;;;;3.27;75.66;94871.38;5008649;28;20160;-64
2020/12/18 05:22:22;;;;;;;52.08;17.40;;;;;;;3.28;75.68;94870.34;5005792;28;20127;-63
2020/12/18 05:24:49;;;;;;;75.90;17.73;;;;;;;3.26;75.81;94868.97;5009753;28;20513;-63
2020/12/18 05:27:16;;;;;;;88.03;18.10;;;;;;;3.27;76.07;94881.13;5008359;28;20022;-63
2020/12/18 05:29:42;;;;;;;49.67;16.73;;;;;;;3.31;75.79;94875.13;5009646;28;20382;-63
2020/12/18 05:32:12;;;;;;;75.75;18.70;;;;;;;3.19;76.23;94888.38;5008337;28;20468;-63
2020/12/18 05:34:41;;;;;;;60.70;18.25;;;;;;;3.21;76.41;94880.25;5009431;28;20028;-63
2020/12/18 05:37:06;;;;;;;54.60;18.17;;;;;;;3.20;76.71;94881.28;5009551;28;20037;-63
2020/12/18 05:39:37;;;;;;;56.35;17.98;;;;;;;3.17;76.64;94890.44;5009281;28;20405;-63
2020/12/18 05:42:03;;;;;;;77.22;19.83;;;;;;;3.20;76.17;94887.34;5009283;28;20410;-63
2020/12/18 05:44:30;;;;;;;73.95;16.02;;;;;;;3.16;76.05;94888.88;5009473;28;20030;-63
2020/12/18 05:47:07;;;;;;;43.65;16.73;;;;;;;3.10;76.52;94892.47;5008054;28;20032;-63
2020/12/18 05:49:35;;;;;;;81.90;17.98;;;;;;;3.11;76.47;94890.63;5009254;28;20029;-63
2020/12/18 05:52:03;;;;;;;62.40;17.05;;;;;;;3.15;76.54;94891.75;5008508;28;20034;-63
2020/12/18 05:54:37;;;;;;;71.03;16.80;;;;;;;3.16;76.09;94902.03;5009047;28;20029;-63
2020/12/18 05:57:11;;;;;;;81.18;17.33;;;;;;;3.15;76.04;94897.00;5009428;28;20109;-64
2020/12/18 05:59:44;;;;;;;80.38;18.85;;;;;;;3.05;76.87;94899.50;5005398;28;20481;-63
2020/12/18 06:02:16;;;;;;;117.15;18.52;;;;;;;3.01;76.81;94897.34;5009249;28;20056;-64
2020/12/18 06:04:42;;;;;;;113.63;20.33;;;;;;;3.03;77.09;94902.34;5009529;28;20029;-63
2020/12/18 06:07:08;;;;;;;64.72;20.05;;;;;;;3.03;77.33;94904.19;5009234;28;20040;-63
2020/12/18 06:09:38;;;;;;;59.60;19.73;;;;;;;3.08;77.20;94909.56;5009411;28;20104;-63
2020/12/18 06:12:08;;;;;;;82.13;20.23;;;;;;;3.07;76.72;94911.38;5009083;28;20037;-63
2020/12/18 06:14:33;;;;;;;60.65;18.20;;;;;;;3.08;76.56;94912.19;5008134;28;20537;-63
2020/12/18 06:17:07;;;;;;;73.55;21.10;;;;;;;3.05;76.63;94912.66;5008996;28;20110;-64
2020/12/18 06:19:40;;;;;;;56.42;20.25;;;;;;;3.07;76.88;94918.50;5009134;28;20065;-63
2020/12/18 06:22:11;;;;;;;63.50;18.17;;;;;;;3.13;76.69;94909.63;5007734;28;20041;-63
2020/12/18 06:24:39;;;;;;;69.88;18.33;;;;;;;3.15;76.14;94913.59;5009650;28;20064;-63
2020/12/18 06:27:07;;;;;;;98.18;18.25;;;;;;;3.13;76.17;94914.91;5009068;28;20096;-63
2020/12/18 06:29:33;;;;;;;83.93;18.77;;;;;;;3.16;76.34;94919.69;5005488;28;20053;-64
2020/12/18 06:32:19;;;;;;;101.20;19.58;;;;;;;3.16;75.92;94917.06;5009594;28;20061;-63
2020/12/18 06:34:45;;;;;;;67.10;17.92;;;;;;;3.13;76.27;94930.69;5007767;28;20026;-63
2020/12/18 06:37:25;;;;;;;67.30;19.42;;;;;;;3.12;76.57;94918.59;5008948;28;20470;-64
2020/12/18 06:39:50;;;;;;;67.68;18.17;;;;;;;3.12;76.27;94924.63;5009521;28;20049;-63
2020/12/18 06:42:19;;;;;;;80.40;19.23;;;;;;;3.14;76.28;94932.31;5009175;28;20038;-63
2020/12/18 06:44:45;;;;;;;75.15;18.20;;;;;;;3.09;75.95;94926.94;5009119;28;20101;-63
2020/12/18 06:47:28;;;;;;;67.95;17.17;;;;;;;3.06;76.32;94927.44;5009162;28;20472;-64
2020/12/18 06:50:11;;;;;;;97.88;18.30;;;;;;;2.98;76.57;94932.06;5008742;28;20049;-63
2020/12/18 06:52:42;;;;;;;57.10;16.60;;;;;;;2.94;77.07;94930.16;5008955;28;20088;-63
2020/12/18 06:55:13;;;;;;;75.95;17.08;;;;;;;2.82;76.79;94930.22;5007541;28;20048;-63
2020/12/18 06:57:39;;;;;;;42.97;16.00;;;;;;;2.78;76.92;94929.09;5008517;28;20533;-64
2020/12/18 07:00:26;;;;;;;49.80;16.52;;;;;;;2.81;77.08;94933.91;5007387;28;20049;-64
2020/12/18 07:02:52;;;;;;;46.25;17.75;;;;;;;2.92;76.73;94935.63;5008649;28;20079;-63
2020/12/18 07:05:35;;;;;;;61.05;17.08;;;;;;;2.96;76.30;94928.06;5010961;28;20025;-63
2020/12/18 07:08:17;;;;;;;43.22;16.73;;;;;;;2.90;76.39;94935.09;5012291;28;20041;-64
2020/12/18 07:10:44;;;;;;;57.78;18.40;;;;;;;2.95;76.18;94929.91;5012159;28;20037;-64
2020/12/18 07:13:15;;;;;;;69.32;18.42;;;;;;;2.92;75.97;94933.00;5011944;28;20096;-64
2020/12/18 07:15:46;;;;;;;59.78;19.00;;;;;;;2.92;76.46;94933.00;5010810;28;20037;-63
2020/12/18 07:18:34;;;;;;;48.83;18.57;;;;;;;2.93;76.60;94934.63;5011868;28;20083;-64
2020/12/18 07:21:03;;;;;;;59.13;20.35;;;;;;;2.96;76.11;94935.97;5011951;28;20644;-63
2020/12/18 07:23:29;;;;;;;104.78;21.40;;;;;;;2.90;76.21;94935.09;5012004;28;20041;-64
2020/12/18 07:25:57;;;;;;;64.63;22.23;;;;;;;2.89;76.74;94937.94;5013433;28;20032;-63
2020/12/18 07:28:24;;;;;;;63.92;22.45;;;;;;;2.92;77.02;94926.94;5011827;28;20025;-63
2020/12/18 07:30:50;;;;;;;57.38;20.25;;;;;;;2.97;77.08;94933.09;5012355;28;20026;-64
2020/12/18 07:33:18;;;;;;;61.70;22.73;;;;;;;3.06;76.19;94944.03;5011592;28;20061;-64
2020/12/18 07:35:46;;;;;;;78.18;19.98;;;;;;;3.01;76.00;94944.75;5011759;28;20694;-62
2020/12/18 07:38:32;;;;;;;72.95;20.92;;;;;;;3.08;75.98;94944.59;5011709;28;20077;-63
2020/12/18 07:41:08;;;;;;;74.57;21.70;;;;;;;3.08;75.88;94952.50;5012029;28;20030;-63
2020/12/18 07:43:35;;;;;;;78.85;21.48;;;;;;;3.16;75.72;94949.47;5010284;28;20144;-63
2020/12/18 07:46:09;;;;;;;60.75;21.02;;;;;;;3.19;75.62;94948.19;5009464;28;20029;-64
2020/12/18 07:48:40;;;;;;;61.35;20.35;;;;;;;3.17;75.31;94953.69;5011468;28;20029;-64
2020/12/18 07:51:09;;;;;;;65.50;22.13;;;;;;;3.09;75.95;94954.09;5011512;28;20033;-65
2020/12/18 07:53:38;;;;;;;70.68;20.08;;;;;;;3.16;76.13;94951.31;5009652;28;20232;-64
2020/12/18 07:56:03;;;;;;;48.78;19.02;;;;;;;3.27;75.66;94947.78;5011194;28;20103;-64
2020/12/18 07:58:30;;;;;;;67.32;20.33;;;;;;;3.34;75.11;94953.69;5011069;28;20117;-64
2020/12/18 08:01:05;;;;;;;51.00;17.63;;;;;;;3.43;74.60;94959.34;5011076;28;20165;-66
2020/12/18 08:03:32;;;;;;;49.28;18.70;;;;;;;3.45;74.67;94959.91;5009659;28;20026;-68
2020/12/18 08:05:59;;;;;;;52.25;16.77;;;;;;;3.48;74.10;94958.63;5011597;28;20021;-66
2020/12/18 08:08:24;;;;;;;46.38;18.52;;;;;;;3.49;73.52;94953.13;5009739;28;20033;-67
2020/12/18 08:10:51;;;;;;;45.97;18.63;;;;;;;3.55;73.16;94948.72;5011282;28;20026;-66
2020/12/18 08:13:27;;;;;;;47.17;18.45;;;;;;;3.64;72.44;94963.09;5010995;28;20034;-65
2020/12/18 08:16:08;;;;;;;50.05;18.88;;;;;;;3.67;72.02;94962.63;5010411;28;20026;-66
2020/12/18 08:18:35;;;;;;;44.80;15.52;;;;;;;3.59;72.18;94949.84;5008478;28;20033;-65
2020/12/18 08:21:00;;;;;;;42.40;16.50;;;;;;;3.55;72.38;94959.28;5009680;28;20061;-65
2020/12/18 08:23:28;;;;;;;45.88;18.58;;;;;;;3.53;72.56;94958.72;5009394;28;20057;-66
2020/12/18 08:25:55;;;;;;;42.05;18.65;;;;;;;3.46;72.55;94960.72;5011032;28;20033;-66
2020/12/18 08:28:21;;;;;;;59.92;20.20;;;;;;;3.47;72.54;94955.19;5010427;28;20030;-66
2020/12/18 08:30:48;;;;;;;42.25;19.85;;;;;;;3.50;71.92;94960.00;5010830;28;20556;-66
2020/12/18 08:33:17;;;;;;;57.00;20.48;;;;;;;3.54;71.83;94957.66;5010715;28;20037;-66
2020/12/18 08:35:52;;;;;;;49.65;19.70;;;;;;;3.54;72.25;94955.03;5009503;28;20444;-66
2020/12/18 08:38:17;;;;;;;49.08;19.75;;;;;;;3.53;72.70;94959.50;5010427;28;20025;-66
2020/12/18 08:40:43;;;;;;;44.90;18.42;;;;;;;3.60;72.14;94968.06;5010383;28;20464;-66
2020/12/18 08:43:12;;;;;;;49.70;18.38;;;;;;;3.64;71.70;94964.94;5008989;28;20061;-66
2020/12/18 08:45:42;;;;;;;42.78;17.10;;;;;;;3.60;71.94;94960.16;5010136;28;20033;-66
2020/12/18 08:48:08;;;;;;;44.33;17.73;;;;;;;3.55;72.47;94956.63;5010070;28;20117;-66
2020/12/18 08:50:34;;;;;;;48.35;17.95;;;;;;;3.68;72.87;94951.00;5010400;28;20025;-66
2020/12/18 08:53:13;;;;;;;45.45;20.05;;;;;;;3.84;71.86;94951.22;5010378;28;20100;-66
2020/12/18 08:55:40;;;;;;;54.75;23.10;;;;;;;3.88;71.45;94958.41;5010314;28;20455;-66
2020/12/18 08:58:10;;;;;;;41.88;20.00;;;;;;;3.88;70.69;94958.41;5010290;28;20137;-66
2020/12/18 09:00:36;;;;;;;49.67;21.10;;;;;;;3.81;70.82;94958.59;5010285;28;20029;-66
2020/12/18 09:03:02;;;;;;;46.97;21.15;;;;;;;3.81;71.13;94953.31;5010206;28;20038;-66
2020/12/18 09:05:34;;;;;;;49.78;20.83;;;;;;;3.80;70.62;94950.91;5009812;28;20105;-67
2020/12/18 09:08:21;;;;;;;56.88;22.73;;;;;;;3.82;70.20;94954.91;5009860;28;20092;-66
2020/12/18 09:10:50;;;;;;;53.50;23.35;;;;;;;3.78;71.11;94937.97;5008535;28;20995;-67
2020/12/18 09:13:21;;;;;;;54.08;22.40;;;;;;;3.78;71.34;94937.16;5010363;28;20030;-67
2020/12/18 09:15:56;;;;;;;59.58;22.55;;;;;;;3.94;71.56;94946.09;5009990;28;20401;-67
2020/12/18 09:18:24;;;;;;;58.30;23.63;;;;;;;4.13;71.12;94938.66;5009923;28;20430;-68
2020/12/18 09:20:50;;;;;;;50.92;22.58;;;;;;;4.30;70.48;94939.41;5009235;28;20109;-67
2020/12/18 09:23:30;;;;;;;50.28;22.15;;;;;;;4.46;69.70;94937.75;5009583;28;20030;-66
2020/12/18 09:25:57;;;;;;;70.70;24.20;;;;;;;4.56;69.24;94943.13;5007569;28;20065;-66
2020/12/18 09:28:23;;;;;;;58.33;23.42;;;;;;;4.62;68.77;94938.69;5008831;28;20461;-67
2020/12/18 09:30:54;;;;;;;46.08;20.65;;;;;;;4.63;67.53;94935.78;5009750;28;20033;-67
2020/12/18 09:33:30;;;;;;;41.65;21.92;;;;;;;4.56;68.72;94927.28;5009684;28;20061;-66
2020/12/18 09:36:02;;;;;;;50.35;24.00;;;;;;;4.49;69.42;94918.75;5008990;28;20040;-65
2020/12/18 09:38:28;;;;;;;47.03;22.25;;;;;;;4.52;69.84;94915.63;5009914;28;20080;-66
2020/12/18 09:40:55;;;;;;;46.50;22.02;;;;;;;4.60;69.26;94924.94;5010084;28;20123;-65
2020/12/18 09:43:21;;;;;;;52.88;22.60;;;;;;;4.59;68.77;94925.97;5009143;28;20042;-66
2020/12/18 09:45:48;;;;;;;56.42;25.05;;;;;;;4.67;68.78;94919.47;5009851;28;20030;-66
2020/12/18 09:48:13;;;;;;;58.72;25.27;;;;;;;4.71;67.89;94931.13;5008208;28;20092;-66
2020/12/18 09:50:39;;;;;;;54.10;23.20;;;;;;;4.74;68.02;94928.78;5009620;28;20460;-67
2020/12/18 09:53:05;;;;;;;51.78;23.92;;;;;;;4.72;68.05;94930.06;5009425;28;20037;-66
2020/12/18 09:55:32;;;;;;;49.28;22.35;;;;;;;4.80;68.55;94921.69;5009145;28;20812;-67
2020/12/18 09:57:57;;;;;;;50.95;24.02;;;;;;;4.88;67.59;94923.06;5009647;28;20119;-67
2020/12/18 10:00:23;;;;;;;51.22;25.70;;;;;;;4.99;67.89;94922.91;5009268;28;20045;-67
2020/12/18 10:02:48;;;;;;;57.13;25.80;;;;;;;5.06;66.96;94914.00;5008067;28;20066;-67
2020/12/18 10:05:14;;;;;;;49.15;24.05;;;;;;;5.12;67.75;94910.34;5009396;28;20040;-67
2020/12/18 10:07:39;;;;;;;52.75;24.10;;;;;;;5.02;67.11;94909.19;5007725;28;20029;-67
2020/12/18 10:10:05;;;;;;;55.45;26.05;;;;;;;4.99;67.99;94908.91;5005674;28;20045;-66
2020/12/18 10:12:30;;;;;;;56.50;25.05;;;;;;;5.10;67.85;94893.94;5008038;28;20049;-65
2020/12/18 10:14:56;;;;;;;48.60;23.38;;;;;;;5.16;67.49;94885.00;5008822;28;21460;-66
2020/12/18 10:17:21;;;;;;;48.85;23.92;;;;;;;5.11;67.33;94890.22;5008924;28;20022;-66
2020/12/18 10:19:47;;;;;;;54.83;25.58;;;;;;;5.13;67.70;94885.50;5008684;28;20543;-66
2020/12/18 10:22:12;;;;;;;59.08;24.88;;;;;;;5.19;68.21;94881.84;5009108;28;20038;-66
2020/12/18 10:24:38;;;;;;;57.92;26.80;;;;;;;5.31;67.76;94884.28;5008977;28;20053;-66
2020/12/18 10:27:03;;;;;;;55.70;26.83;;;;;;;5.31;67.51;94882.47;5008737;28;20046;-66
2020/12/18 10:29:29;;;;;;;58.03;27.70;;;;;;;5.33;67.54;94877.72;5007855;28;20037;-66
2020/12/18 10:31:58;;;;;;;62.28;27.75;;;;;;;5.32;67.19;94876.13;5008706;28;20484;-66
2020/12/18 10:34:23;;;;;;;59.60;28.90;;;;;;;5.27;67.79;94877.94;5007707;28;20080;-65
2020/12/18 10:36:53;;;;;;;61.70;28.60;;;;;;;5.38;67.46;94879.59;5008929;28;20064;-67
2020/12/18 10:39:19;;;;;;;60.47;27.05;;;;;;;5.48;66.96;94871.72;5009395;28;20100;-66
2020/12/18 10:41:45;;;;;;;61.35;27.90;;;;;;;5.54;66.72;94876.00;5012151;28;20130;-66
2020/12/18 10:44:10;;;;;;;67.07;28.83;;;;;;;5.59;66.43;94880.50;5010873;28;20456;-67
2020/12/18 10:46:36;;;;;;;63.22;27.98;;;;;;;5.57;66.37;94872.03;5011373;28;20173;-66
2020/12/18 10:49:02;;;;;;;66.78;29.58;;;;;;;5.58;67.06;94863.06;5012503;28;20188;-66
2020/12/18 10:51:28;;;;;;;61.47;30.92;;;;;;;5.60;67.15;94871.53;5012221;28;20030;-66
2020/12/18 10:53:53;;;;;;;73.93;31.00;;;;;;;5.61;66.86;94873.91;5012569;28;20556;-66
2020/12/18 10:56:18;;;;;;;70.18;33.13;;;;;;;5.63;66.86;94865.72;5012285;28;20037;-66
2020/12/18 10:58:44;;;;;;;73.20;31.65;;;;;;;5.69;66.67;94864.69;5012597;28;20021;-65
2020/12/18 11:01:09;;;;;;;68.85;30.58;;;;;;;5.73;65.95;94868.41;5010980;28;20073;-65
2020/12/18 11:03:35;;;;;;;68.38;31.13;;;;;;;5.71;66.48;94859.94;5010453;28;20616;-65
2020/12/18 11:06:04;;;;;;;69.25;32.85;;;;;;;5.86;66.77;94853.13;5010435;28;20566;-65
2020/12/18 11:08:29;;;;;;;72.45;31.58;;;;;;;5.99;66.49;94861.41;5011600;28;20026;-66
2020/12/18 11:10:54;;;;;;;67.38;32.25;;;;;;;6.16;65.45;94863.06;5011709;28;20401;-66
2020/12/18 11:13:21;;;;;;;64.35;29.20;;;;;;;6.23;64.17;94850.38;5012543;28;20030;-66
2020/12/18 11:15:47;;;;;;;72.25;30.40;;;;;;;6.20;64.96;94849.03;5011946;28;20040;-67
2020/12/18 11:18:12;;;;;;;68.75;30.27;;;;;;;6.12;64.81;94849.53;5011110;28;20022;-66
2020/12/18 11:20:37;;;;;;;63.00;31.73;;;;;;;6.05;65.21;94843.69;5011957;28;20033;-66
2020/12/18 11:23:03;;;;;;;56.10;28.25;;;;;;;6.00;64.83;94844.50;5011598;28;20117;-66
2020/12/18 11:25:28;;;;;;;61.40;30.23;;;;;;;5.99;66.21;94845.53;5012022;28;20037;-66